Time;durP1;ratioP1;P1;durP2;ratioP2;P2;SDS_P1;SDS_P2;PMS_P1;PMS_P2;Temp;Humidity;BMP_temperature;BMP_pressure;BME280_temperature;BME280_humidity;BME280_pressure;Samples;Min_cycle;Max_cycle;Signal;HPM_P1;HPM_P2
2022/06/23 00:01:52;;;;;;;17.67;8.15;;;;;;;22.61;92.15;101123.69;7400243;19;20014;-42
2022/06/23 00:04:25;;;;;;;14.50;9.23;;;;;;;22.66;91.50;101123.25;7398499;19;20376;-43
2022/06/23 00:06:57;;;;;;;14.23;8.73;;;;;;;22.58;92.28;101128.44;7399668;19;20348;-42
2022/06/23 00:09:37;;;;;;;15.40;8.57;;;;;;;22.49;92.84;101124.78;7398194;19;20018;-43
2022/06/23 00:12:22;;;;;;;12.68;8.65;;;;;;;22.43;93.78;101117.34;7398093;19;20019;-42
2022/06/23 00:14:56;;;;;;;12.95;8.07;;;;;;;22.41;94.25;101113.97;7397694;19;20021;-42
2022/06/23 00:17:28;;;;;;;14.63;8.50;;;;;;;22.43;94.57;101120.00;7398735;19;20021;-44
2022/06/23 00:19:59;;;;;;;13.70;8.80;;;;;;;22.42;94.15;101113.84;7393743;19;20472;-43
2022/06/23 00:22:31;;;;;;;14.45;8.32;;;;;;;22.35;94.84;101107.34;7393596;19;20335;-43
2022/06/23 00:25:04;;;;;;;14.38;8.75;;;;;;;22.32;95.24;101104.06;7393071;19;20061;-43
2022/06/23 00:27:35;;;;;;;13.30;8.80;;;;;;;22.26;95.91;101113.47;7397292;19;20045;-43
2022/06/23 00:30:23;;;;;;;14.27;8.23;;;;;;;22.52;94.52;101121.00;7393479;19;20022;-43
2022/06/23 00:32:52;;;;;;;13.00;8.75;;;;;;;22.59;92.56;101112.28;7397637;19;20015;-42
2022/06/23 00:35:22;;;;;;;12.95;8.43;;;;;;;22.43;93.86;101115.50;7396520;19;20021;-43
2022/06/23 00:37:54;;;;;;;15.23;9.57;;;;;;;22.11;97.26;101113.03;7398246;19;20025;-42
2022/06/23 00:40:26;;;;;;;16.38;9.23;;;;;;;22.01;97.45;101107.66;7399605;19;20018;-42
2022/06/23 00:42:58;;;;;;;13.98;8.88;;;;;;;22.15;96.61;101108.25;7406286;19;20029;-43
2022/06/23 00:45:39;;;;;;;14.50;9.13;;;;;;;21.85;99.79;101110.84;7404313;19;20357;-43
2022/06/23 00:48:21;;;;;;;13.55;9.15;;;;;;;21.78;100.00;101107.84;7408268;19;20021;-44
2022/06/23 00:50:58;;;;;;;18.38;9.13;;;;;;;22.06;98.21;101108.06;7406473;19;20621;-43
2022/06/23 00:53:32;;;;;;;14.55;9.32;;;;;;;21.96;97.87;101107.19;7402344;19;20047;-44
2022/06/23 00:56:09;;;;;;;15.82;9.05;;;;;;;22.02;98.06;101093.34;7401716;19;20041;-43
2022/06/23 00:58:47;;;;;;;17.20;10.05;;;;;;;22.12;97.04;101098.69;7401459;19;20129;-42
2022/06/23 01:01:29;;;;;;;15.23;9.93;;;;;;;22.10;96.31;101096.16;7401085;19;20015;-44
2022/06/23 01:04:03;;;;;;;18.20;9.80;;;;;;;21.82;99.48;101091.56;7401600;19;20011;-43
2022/06/23 01:06:40;;;;;;;14.80;9.07;;;;;;;21.80;99.54;101082.88;7400973;19;20006;-42
2022/06/23 01:09:24;;;;;;;15.23;10.02;;;;;;;21.87;99.20;101089.34;7399912;19;20014;-43
2022/06/23 01:11:57;;;;;;;16.35;10.20;;;;;;;21.90;98.52;101097.09;7400046;19;20026;-43
2022/06/23 01:14:34;;;;;;;14.18;9.27;;;;;;;21.96;97.02;101093.88;7399837;19;20321;-44
2022/06/23 01:17:14;;;;;;;15.85;9.80;;;;;;;21.94;97.52;101095.84;7401836;19;20017;-42
2022/06/23 01:20:24;;;;;;;16.98;10.25;;;;;;;21.81;97.28;101093.41;7399709;19;20041;-42
2022/06/23 01:23:01;;;;;;;16.23;10.82;;;;;;;21.65;99.34;101091.25;7399883;19;20017;-44
2022/06/23 01:25:55;;;;;;;13.93;10.23;;;;;;;21.62;99.48;101099.50;7396702;19;20010;-42
2022/06/23 01:28:30;;;;;;;12.73;9.40;;;;;;;21.64;99.56;101102.88;7398623;19;20033;-43
2022/06/23 01:31:07;;;;;;;12.27;9.60;;;;;;;21.47;100.00;101100.78;7399787;19;20015;-42
2022/06/23 01:33:42;;;;;;;14.73;9.65;;;;;;;21.44;100.00;101099.22;7397567;19;20018;-43
2022/06/23 01:36:18;;;;;;;20.02;10.38;;;;;;;21.65;99.29;101096.56;7398991;19;20010;-44
2022/06/23 01:39:02;;;;;;;16.98;9.57;;;;;;;21.74;97.99;101106.44;7397205;19;20019;-43
2022/06/23 01:41:35;;;;;;;15.48;10.35;;;;;;;21.70;97.85;101104.16;7396902;19;20021;-42
2022/06/23 01:44:16;;;;;;;14.68;10.32;;;;;;;21.70;97.35;101102.34;7396472;19;20019;-46
2022/06/23 01:46:49;;;;;;;16.55;10.20;;;;;;;21.55;98.76;101101.00;7397099;19;20014;-44
2022/06/23 01:49:21;;;;;;;16.25;10.35;;;;;;;21.69;97.51;101099.81;7396868;19;20102;-43
2022/06/23 01:51:52;;;;;;;12.90;10.52;;;;;;;21.64;97.94;101094.88;7394701;19;20025;-42
2022/06/23 01:54:28;;;;;;;15.15;10.60;;;;;;;21.49;99.05;101099.69;7396093;19;20115;-42
2022/06/23 01:57:04;;;;;;;14.38;9.90;;;;;;;21.38;99.49;101095.28;7395587;19;20118;-42
2022/06/23 01:59:49;;;;;;;17.27;10.18;;;;;;;21.39;100.00;101088.97;7396647;19;20022;-42
2022/06/23 02:02:52;;;;;;;14.77;10.25;;;;;;;21.49;99.01;101094.38;7397443;19;20765;-43
2022/06/23 02:05:35;;;;;;;15.52;10.15;;;;;;;21.51;97.73;101092.44;7389928;19;20014;-42
2022/06/23 02:08:11;;;;;;;13.80;9.77;;;;;;;21.41;98.74;101092.34;7397077;19;20029;-42
2022/06/23 02:10:50;;;;;;;14.57;9.95;;;;;;;21.47;98.14;101085.63;7397288;19;20017;-43
2022/06/23 02:13:25;;;;;;;14.75;9.70;;;;;;;21.31;99.59;101072.78;7395295;19;20011;-42
2022/06/23 02:16:05;;;;;;;15.40;10.63;;;;;;;21.38;98.30;101075.78;7396696;19;20100;-41
2022/06/23 02:18:39;;;;;;;15.10;10.43;;;;;;;21.29;98.85;101081.88;7396563;19;20014;-42
2022/06/23 02:21:22;;;;;;;13.52;9.18;;;;;;;21.26;98.74;101080.31;7397296;19;20025;-42
2022/06/23 02:23:58;;;;;;;15.68;9.85;;;;;;;21.35;96.99;101068.88;7398540;19;20019;-42
2022/06/23 02:26:34;;;;;;;15.07;10.23;;;;;;;21.31;97.47;101063.97;7398279;19;20014;-42
2022/06/23 02:29:07;;;;;;;16.45;10.13;;;;;;;21.15;98.37;101065.25;7399841;19;20022;-42
2022/06/23 02:31:44;;;;;;;;;;;;;;;21.22;97.43;101069.09;7400860;19;20025;-43
2022/06/23 02:34:18;;;;;;;16.13;9.98;;;;;;;21.24;97.77;101076.97;7396522;19;19919;-42
2022/06/23 02:37:03;;;;;;;17.23;10.07;;;;;;;21.16;97.08;101071.44;7395755;19;20011;-42
2022/06/23 02:39:40;;;;;;;17.17;10.02;;;;;;;21.24;96.46;101075.13;7395066;19;20014;-42
2022/06/23 02:42:24;;;;;;;13.63;9.35;;;;;;;21.28;95.73;101067.72;7395299;19;20018;-42
2022/06/23 02:45:15;;;;;;;13.55;9.40;;;;;;;21.25;95.71;101062.66;7394164;19;20043;-42
2022/06/23 02:48:02;;;;;;;15.85;9.65;;;;;;;21.31;94.69;101067.47;7393802;19;20018;-42
2022/06/23 02:50:53;;;;;;;14.82;10.05;;;;;;;21.16;95.57;101066.97;7394843;19;20017;-41
2022/06/23 02:53:38;;;;;;;14.98;9.93;;;;;;;21.31;94.83;101072.78;7394274;19;20025;-41
2022/06/23 02:56:32;;;;;;;14.98;9.18;;;;;;;21.35;94.10;101068.88;7395048;19;20022;-41
2022/06/23 02:59:11;;;;;;;14.77;10.38;;;;;;;21.40;93.77;101061.31;7394670;19;20011;-42
2022/06/23 03:01:47;;;;;;;12.85;9.38;;;;;;;21.40;93.33;101066.66;7394901;19;20010;-42
2022/06/23 03:04:26;;;;;;;15.82;10.20;;;;;;;21.46;92.57;101069.78;7390718;19;20018;-42
2022/06/23 03:07:01;;;;;;;18.70;11.05;;;;;;;21.16;95.68;101074.97;7394624;19;20786;-41
2022/06/23 03:09:37;;;;;;;13.32;9.38;;;;;;;21.31;93.93;101071.94;7394028;19;20014;-42
2022/06/23 03:12:18;;;;;;;15.23;9.48;;;;;;;21.27;93.55;101072.19;7393876;19;20022;-42
2022/06/23 03:14:53;;;;;;;14.68;8.80;;;;;;;21.14;95.15;101078.72;7392812;19;20023;-42
2022/06/23 03:17:27;;;;;;;15.05;9.73;;;;;;;21.29;93.44;101082.75;7394907;19;20006;-41
2022/06/23 03:20:05;;;;;;;14.68;9.35;;;;;;;21.26;93.52;101081.19;7393392;19;20018;-41
2022/06/23 03:22:42;;;;;;;12.63;9.25;;;;;;;21.03;95.58;101072.50;7393980;19;20025;-41
2022/06/23 03:25:21;;;;;;;14.73;9.85;;;;;;;21.07;94.95;101081.06;7391844;19;20015;-41
2022/06/23 03:27:56;;;;;;;15.75;8.77;;;;;;;21.06;94.86;101074.88;7394766;19;20476;-42
2022/06/23 03:30:32;;;;;;;15.27;10.20;;;;;;;21.28;93.01;101083.72;7393694;19;20114;-42
2022/06/23 03:33:09;;;;;;;13.18;9.25;;;;;;;21.21;93.34;101085.22;7393443;19;20558;-43
2022/06/23 03:35:46;;;;;;;15.38;9.43;;;;;;;21.29;93.09;101074.75;7394067;19;20017;-42
2022/06/23 03:38:22;;;;;;;27.63;10.55;;;;;;;21.19;93.86;101077.34;7394624;19;20022;-42
2022/06/23 03:43:45;;;;;;;15.35;9.95;;;;;;;21.02;95.43;101070.78;7395056;19;20011;-42
2022/06/23 03:46:22;;;;;;;13.88;9.55;;;;;;;20.93;96.68;101068.88;7394209;19;20021;-42
2022/06/23 03:48:56;;;;;;;14.55;8.85;;;;;;;20.84;97.28;101067.84;7394332;19;20015;-42
2022/06/23 03:51:33;;;;;;;13.32;9.25;;;;;;;20.83;97.39;101062.66;7394551;19;20365;-42
2022/06/23 03:54:06;;;;;;;14.60;9.73;;;;;;;20.85;96.89;101060.72;7393340;19;20049;-42
2022/06/23 03:56:37;;;;;;;;;;;;;;;20.97;95.45;101057.00;7395065;19;20014;-41
2022/06/23 03:59:15;;;;;;;14.57;9.40;;;;;;;21.01;94.98;101053.09;7393077;19;19923;-43
2022/06/23 04:01:51;;;;;;;15.93;9.52;;;;;;;21.00;95.30;101059.41;7396173;19;20345;-42
2022/06/23 04:04:24;;;;;;;11.35;8.85;;;;;;;21.14;94.02;101052.91;7395763;19;20029;-43
2022/06/23 04:06:55;;;;;;;13.25;8.90;;;;;;;21.14;93.77;101058.25;7395805;19;20026;-42
2022/06/23 04:09:27;;;;;;;15.75;9.70;;;;;;;21.22;93.36;101062.91;7396286;19;20014;-42
2022/06/23 04:12:06;;;;;;;11.50;9.77;;;;;;;21.24;92.79;101063.63;7395547;19;20558;-42
2022/06/23 04:14:48;;;;;;;14.10;9.52;;;;;;;21.15;92.64;101054.59;7394953;19;20022;-41
2022/06/23 04:17:25;;;;;;;13.10;8.65;;;;;;;20.99;94.89;101063.06;7395829;19;20053;-42
2022/06/23 04:19:59;;;;;;;13.10;9.70;;;;;;;21.12;94.19;101057.53;7396062;19;20049;-42
2022/06/23 04:22:40;;;;;;;12.85;9.40;;;;;;;21.14;93.20;101058.25;7408180;19;20039;-41
2022/06/23 04:25:14;;;;;;;13.55;10.05;;;;;;;20.95;95.65;101060.75;7408272;19;20026;-42
2022/06/23 04:27:48;;;;;;;15.52;9.55;;;;;;;20.98;95.47;101053.38;7409371;19;20014;-42
2022/06/23 04:30:29;;;;;;;13.98;9.88;;;;;;;21.06;94.87;101042.91;7404220;19;20022;-42
2022/06/23 04:33:01;;;;;;;13.82;9.52;;;;;;;21.00;94.54;101042.59;7395016;19;20017;-42
2022/06/23 04:35:36;;;;;;;23.23;10.35;;;;;;;21.08;94.65;101043.63;7393273;19;20010;-42
2022/06/23 04:38:19;;;;;;;15.32;10.38;;;;;;;21.09;94.13;101041.81;7398137;19;20011;-42
2022/06/23 04:40:52;;;;;;;14.70;9.45;;;;;;;21.05;94.22;101043.88;7406942;19;20669;-42
2022/06/23 04:43:25;;;;;;;12.63;9.35;;;;;;;21.11;94.17;101050.50;7408931;19;20038;-42
2022/06/23 04:45:58;;;;;;;14.30;9.30;;;;;;;21.30;92.26;101055.09;7408138;19;20014;-42
2022/06/23 04:48:34;;;;;;;14.07;9.88;;;;;;;21.31;92.02;101051.47;7409412;19;20019;-42
2022/06/23 04:51:08;;;;;;;13.82;9.38;;;;;;;21.24;93.18;101052.97;7397008;19;20015;-44
2022/06/23 04:53:50;;;;;;;20.42;9.50;;;;;;;21.26;92.06;101059.88;7391276;19;20030;-44
2022/06/23 04:56:31;;;;;;;16.70;9.25;;;;;;;21.33;91.96;101054.00;7391578;19;20027;-43
2022/06/23 04:59:04;;;;;;;10.68;9.15;;;;;;;21.36;91.47;101057.25;7389752;19;20018;-43
2022/06/23 05:01:40;;;;;;;14.15;9.60;;;;;;;21.32;91.27;101061.16;7391329;19;20015;-43
2022/06/23 05:04:19;;;;;;;14.32;8.80;;;;;;;21.40;90.56;101065.81;7392457;19;20014;-41
2022/06/23 05:06:51;;;;;;;14.30;10.02;;;;;;;21.53;89.21;101071.78;7391192;19;20681;-44
2022/06/23 05:09:29;;;;;;;16.17;9.73;;;;;;;21.56;89.21;101068.03;7393018;19;20021;-43
2022/06/23 05:12:01;;;;;;;12.77;9.30;;;;;;;21.41;89.88;101062.19;7391971;19;20046;-43
2022/06/23 05:14:36;;;;;;;13.50;9.60;;;;;;;21.36;90.15;101065.25;7390304;19;20014;-43
2022/06/23 05:17:13;;;;;;;16.40;10.15;;;;;;;21.53;88.60;101070.97;7393581;19;20090;-43
2022/06/23 05:19:43;;;;;;;14.60;9.93;;;;;;;21.33;89.84;101069.97;7392287;19;20018;-43
2022/06/23 05:22:21;;;;;;;14.07;10.15;;;;;;;21.52;88.21;101069.25;7391246;19;20025;-42
2022/06/23 05:24:54;;;;;;;12.95;9.90;;;;;;;21.55;88.00;101063.66;7390280;19;20035;-43
2022/06/23 05:27:28;;;;;;;14.32;9.40;;;;;;;21.46;89.54;101061.78;7396665;19;20014;-42
2022/06/23 05:30:03;;;;;;;15.68;9.35;;;;;;;21.53;88.48;101065.63;7395919;19;20025;-42
2022/06/23 05:32:39;;;;;;;13.18;9.15;;;;;;;21.57;87.57;101062.56;7398806;19;20015;-42
2022/06/23 05:35:18;;;;;;;17.05;9.88;;;;;;;21.66;87.15;101060.06;7396450;19;20029;-42
2022/06/23 05:37:54;;;;;;;15.15;9.77;;;;;;;21.66;87.32;101068.91;7398432;19;20025;-43
2022/06/23 05:40:31;;;;;;;14.30;9.63;;;;;;;21.78;86.04;101067.84;7399570;19;20022;-42
2022/06/23 05:43:02;;;;;;;14.02;9.60;;;;;;;21.73;85.19;101061.22;7399750;19;20011;-42
2022/06/23 05:45:41;;;;;;;18.63;9.88;;;;;;;21.75;84.75;101053.94;7398508;19;20015;-43
2022/06/23 05:48:17;;;;;;;14.38;9.40;;;;;;;21.83;85.16;101062.09;7398767;19;20025;-43
2022/06/23 05:50:50;;;;;;;13.07;9.50;;;;;;;21.72;85.90;101055.03;7399075;19;20022;-43
2022/06/23 05:53:25;;;;;;;16.80;10.05;;;;;;;21.80;85.63;101057.03;7398755;19;20487;-42
2022/06/23 05:56:02;;;;;;;12.57;8.82;;;;;;;21.74;86.67;101054.91;7398548;19;20016;-42
2022/06/23 05:58:40;;;;;;;14.48;10.27;;;;;;;21.65;87.24;101066.38;7397368;19;20081;-42
2022/06/23 06:01:18;;;;;;;11.50;8.90;;;;;;;21.66;84.76;101066.22;7397967;19;20038;-43
2022/06/23 06:03:53;;;;;;;15.25;9.68;;;;;;;21.79;84.50;101071.34;7397157;19;20029;-42
2022/06/23 06:06:22;;;;;;;13.52;9.73;;;;;;;21.78;85.65;101067.00;7398671;19;20025;-42
2022/06/23 06:11:42;;;;;;;12.63;9.65;;;;;;;22.06;84.65;101068.03;7398103;19;20018;-42
2022/06/23 06:14:16;;;;;;;14.65;9.70;;;;;;;22.17;84.03;101061.75;7398578;19;20018;-42
2022/06/23 06:16:45;;;;;;;15.82;9.88;;;;;;;22.20;83.96;101057.97;7399850;19;20021;-42
2022/06/23 06:19:16;;;;;;;18.00;9.50;;;;;;;22.20;85.71;101057.97;7399608;19;20022;-42
2022/06/23 06:21:45;;;;;;;16.38;10.02;;;;;;;22.15;85.60;101061.06;7403604;19;20047;-42
2022/06/23 06:24:21;;;;;;;15.45;9.20;;;;;;;22.31;86.03;101057.84;7403174;19;20033;-42
2022/06/23 06:26:56;;;;;;;16.23;9.93;;;;;;;22.28;85.16;101060.81;7405884;19;20018;-49
2022/06/23 06:29:27;;;;;;;13.15;9.10;;;;;;;22.24;85.86;101054.88;7401447;19;20021;-46
2022/06/23 06:32:13;;;;;;;11.70;9.75;;;;;;;22.28;85.48;101044.78;7398059;19;20018;-42
2022/06/23 06:34:48;;;;;;;14.20;9.88;;;;;;;22.66;83.16;101045.78;7400277;19;20029;-42
2022/06/23 06:37:19;;;;;;;31.98;10.10;;;;;;;22.73;82.85;101038.06;7399820;19;20073;-42
2022/06/23 06:39:53;;;;;;;20.92;10.35;;;;;;;22.72;84.11;101042.53;7399877;19;20071;-42
2022/06/23 06:42:29;;;;;;;15.75;9.82;;;;;;;22.93;81.84;101039.72;7399257;19;20014;-43
2022/06/23 06:45:12;;;;;;;11.60;8.80;;;;;;;22.91;82.37;101043.50;7395936;19;20011;-42
2022/06/23 06:47:42;;;;;;;39.42;12.40;;;;;;;22.85;83.61;101044.91;7397947;19;20006;-42
2022/06/23 06:50:27;;;;;;;13.68;9.82;;;;;;;23.12;81.30;101062.06;7396097;19;20014;-42
2022/06/23 06:52:57;;;;;;;12.63;9.05;;;;;;;23.21;81.48;101060.38;7397422;19;20014;-44
2022/06/23 06:55:30;;;;;;;17.38;9.65;;;;;;;23.12;82.15;101057.56;7393680;19;20019;-42
2022/06/23 06:58:08;;;;;;;13.75;9.98;;;;;;;23.06;82.62;101062.63;7398276;19;20010;-42
2022/06/23 07:00:43;;;;;;;12.00;10.05;;;;;;;23.17;80.87;101064.31;7397655;19;20018;-43
2022/06/23 07:03:15;;;;;;;13.30;10.07;;;;;;;23.35;79.21;101067.91;7396615;19;20015;-42
2022/06/23 07:05:50;;;;;;;12.20;8.48;;;;;;;23.35;81.06;101072.44;7396463;19;20026;-42
2022/06/23 07:08:30;;;;;;;11.15;8.98;;;;;;;23.47;81.19;101066.75;7396405;19;20070;-43
2022/06/23 07:11:05;;;;;;;16.88;10.15;;;;;;;23.53;78.39;101062.66;7396452;19;20017;-43
2022/06/23 07:13:45;;;;;;;14.88;9.98;;;;;;;23.57;79.41;101065.88;7396410;19;20022;-42
2022/06/23 07:16:22;;;;;;;12.02;9.90;;;;;;;23.76;77.47;101062.28;7396701;19;20798;-42
2022/06/23 07:18:58;;;;;;;13.40;9.05;;;;;;;23.79;77.60;101064.66;7395718;19;20417;-42
2022/06/23 07:21:31;;;;;;;12.80;9.48;;;;;;;23.90;77.40;101061.81;7397640;19;20491;-41
2022/06/23 07:24:05;;;;;;;;;;;;;;;24.06;75.67;101049.63;7396665;19;20018;-42
2022/06/23 07:26:43;;;;;;;38.03;10.65;;;;;;;24.25;73.78;101049.47;7397677;19;20237;-44
2022/06/23 07:29:26;;;;;;;10.25;9.07;;;;;;;24.27;74.12;101052.84;7398564;19;20593;-42
2022/06/23 07:32:10;;;;;;;15.43;10.50;;;;;;;24.31;72.97;101043.50;7396413;19;20011;-42
2022/06/23 07:34:44;;;;;;;13.52;9.70;;;;;;;24.45;72.94;101049.34;7397203;19;20006;-42
2022/06/23 07:37:21;;;;;;;10.98;8.85;;;;;;;24.60;72.03;101053.19;7397015;19;20021;-43
2022/06/23 07:39:53;;;;;;;14.50;8.32;;;;;;;24.62;73.89;101043.16;7396326;19;20508;-44
2022/06/23 07:42:29;;;;;;;14.60;9.50;;;;;;;24.68;72.42;101049.72;7397859;19;20437;-42
2022/06/23 07:45:07;;;;;;;15.55;8.63;;;;;;;24.71;72.88;101044.06;7396930;19;20224;-43
2022/06/23 07:47:36;;;;;;;13.80;9.10;;;;;;;24.88;70.17;101045.84;7399041;19;20351;-43
2022/06/23 07:50:07;;;;;;;11.07;9.02;;;;;;;25.01;70.27;101042.75;7396401;19;20010;-42
2022/06/23 07:52:36;;;;;;;14.35;10.27;;;;;;;25.09;70.21;101049.16;7396672;19;20491;-43
2022/06/23 07:55:06;;;;;;;11.73;9.90;;;;;;;25.19;68.67;101047.25;7397040;19;20015;-42
2022/06/23 07:57:35;;;;;;;13.50;9.80;;;;;;;25.25;68.20;101038.56;7397751;19;20025;-43
2022/06/23 08:00:10;;;;;;;15.85;9.43;;;;;;;25.31;68.18;101040.63;7395845;19;20025;-44
2022/06/23 08:02:48;;;;;;;13.27;9.68;;;;;;;25.34;67.89;101036.78;7396191;19;20055;-42
2022/06/23 08:05:23;;;;;;;16.83;10.20;;;;;;;25.51;69.38;101032.34;7394828;19;20382;-42
2022/06/23 08:07:52;;;;;;;14.65;9.75;;;;;;;25.57;68.92;101026.34;7396101;19;20015;-42
2022/06/23 08:10:26;;;;;;;15.75;9.80;;;;;;;25.78;67.24;101036.66;7394856;19;20018;-43
2022/06/23 08:12:58;;;;;;;14.18;9.93;;;;;;;25.76;66.24;101030.59;7394701;19;20018;-42
2022/06/23 08:18:26;;;;;;;13.00;10.15;;;;;;;25.85;66.58;101023.44;7391736;19;20364;-41
2022/06/23 08:21:04;;;;;;;12.55;9.85;;;;;;;25.98;66.45;101023.78;7391482;19;20014;-41
2022/06/23 08:23:39;;;;;;;17.13;9.43;;;;;;;26.01;68.62;101025.34;7389423;19;20018;-41
2022/06/23 08:26:11;;;;;;;18.00;9.75;;;;;;;26.15;66.73;101031.88;7392129;19;20019;-41
2022/06/23 08:28:42;;;;;;;13.57;9.10;;;;;;;26.41;67.05;101029.09;7390933;19;20019;-41
2022/06/23 08:31:13;;;;;;;16.63;8.00;;;;;;;26.59;67.05;101026.22;7391181;19;20014;-42
2022/06/23 08:33:42;;;;;;;14.38;9.25;;;;;;;26.57;65.05;101025.56;7388621;19;20018;-41
2022/06/23 08:36:15;;;;;;;90.13;16.13;;;;;;;26.69;67.31;101018.88;7392110;19;20003;-41
2022/06/23 08:38:49;;;;;;;16.25;9.07;;;;;;;26.82;65.21;101022.88;7390625;19;20011;-41
2022/06/23 08:41:27;;;;;;;18.42;8.73;;;;;;;26.98;64.38;101022.00;7391661;19;20011;-41
2022/06/23 08:44:04;;;;;;;20.38;9.93;;;;;;;26.99;64.22;101008.38;7390365;19;20335;-41
2022/06/23 08:46:41;;;;;;;16.75;8.95;;;;;;;27.22;67.80;101015.75;7391694;19;20061;-41
2022/06/23 08:49:17;;;;;;;12.55;8.82;;;;;;;27.40;62.67;101021.75;7391031;19;20018;-41
2022/06/23 08:51:54;;;;;;;12.93;9.15;;;;;;;27.41;62.10;101028.84;7391961;19;20441;-41
2022/06/23 08:54:31;;;;;;;12.75;7.90;;;;;;;27.28;64.04;101023.09;7390829;19;20010;-41
2022/06/23 08:57:10;;;;;;;12.95;8.40;;;;;;;27.24;65.29;101019.13;7389750;19;20023;-41
2022/06/23 08:59:46;;;;;;;14.15;9.80;;;;;;;27.47;64.15;101018.38;7387929;19;20022;-41
2022/06/23 09:02:23;;;;;;;15.57;8.65;;;;;;;27.51;63.39;101017.88;7392659;19;20365;-41
2022/06/23 09:04:59;;;;;;;11.63;8.35;;;;;;;27.74;63.02;101015.22;7396494;19;20021;-42
2022/06/23 09:07:43;;;;;;;12.07;7.82;;;;;;;27.72;63.79;101017.25;7395156;19;20345;-41
2022/06/23 09:10:24;;;;;;;11.68;7.80;;;;;;;27.91;62.85;101023.19;7395198;19;20014;-43
2022/06/23 09:13:03;;;;;;;20.73;8.77;;;;;;;27.89;61.93;101011.78;7397108;19;20348;-42
2022/06/23 09:16:01;;;;;;;12.43;7.78;;;;;;;27.72;64.63;101014.53;7396290;19;20011;-42
2022/06/23 09:18:51;;;;;;;9.02;7.28;;;;;;;27.93;63.26;101018.50;7397753;19;20017;-42
2022/06/23 09:21:34;;;;;;;14.35;7.03;;;;;;;28.01;63.31;101014.94;7398836;19;20026;-42
2022/06/23 09:24:24;;;;;;;15.48;7.07;;;;;;;28.23;63.73;101013.28;7398484;19;20015;-42
2022/06/23 09:27:00;;;;;;;10.40;6.53;;;;;;;28.00;62.46;101015.94;7401473;19;20011;-41
2022/06/23 09:29:46;;;;;;;9.50;6.07;;;;;;;28.28;61.59;101016.25;7400801;19;20021;-40
2022/06/23 09:32:25;;;;;;;10.80;5.82;;;;;;;28.43;59.25;101011.75;7400530;19;20025;-41
2022/06/23 09:35:14;;;;;;;11.68;6.63;;;;;;;28.20;60.71;101014.47;7399407;19;20020;-40
2022/06/23 09:38:13;;;;;;;13.50;6.95;;;;;;;28.44;60.75;101005.34;7400901;19;20024;-40
2022/06/23 09:40:53;;;;;;;14.93;5.88;;;;;;;28.66;60.69;101002.84;7400849;19;20022;-41
2022/06/23 09:44:00;;;;;;;9.48;6.28;;;;;;;28.60;58.85;101009.75;7396723;19;20022;-41
2022/06/23 09:46:59;;;;;;;11.38;6.50;;;;;;;28.48;60.14;101003.97;7397309;19;20015;-42
2022/06/23 09:49:46;;;;;;;15.02;5.88;;;;;;;28.56;62.46;101005.75;7396611;19;20744;-42
2022/06/23 09:52:53;;;;;;;48.83;8.85;;;;;;;28.89;58.26;101010.03;7393357;19;20026;-42
2022/06/23 09:55:43;;;;;;;10.52;5.60;;;;;;;28.69;58.19;101010.56;7395928;19;20018;-39
2022/06/23 09:58:29;;;;;;;15.63;6.32;;;;;;;29.01;58.21;100997.75;7396097;19;20011;-41
2022/06/23 10:01:12;;;;;;;17.50;7.47;;;;;;;29.14;56.11;100995.25;7396165;19;20018;-44
2022/06/23 10:03:58;;;;;;;13.82;5.75;;;;;;;29.37;57.92;101004.28;7395194;19;20483;-42
2022/06/23 10:06:45;;;;;;;14.40;6.70;;;;;;;29.06;57.31;100998.03;7397393;19;20011;-44
2022/06/23 10:09:31;;;;;;;11.40;6.63;;;;;;;29.40;57.72;100993.97;7393014;19;20018;-42
2022/06/23 10:12:28;;;;;;;11.95;5.70;;;;;;;29.63;58.40;100992.97;7396769;19;20530;-43
2022/06/23 10:15:21;;;;;;;11.18;6.60;;;;;;;29.91;55.26;100995.00;7395680;19;20022;-41
2022/06/23 10:18:07;;;;;;;12.85;6.50;;;;;;;29.89;55.01;100987.09;7397174;19;20014;-42
2022/06/23 10:21:02;;;;;;;12.82;6.97;;;;;;;29.15;57.41;100991.53;7395678;19;20021;-41
2022/06/23 10:23:51;;;;;;;46.15;8.32;;;;;;;29.75;57.52;100972.56;7392774;19;20017;-40
2022/06/23 10:26:43;;;;;;;22.00;5.93;;;;;;;29.78;56.81;100969.47;7396476;19;20374;-41
2022/06/23 10:29:35;;;;;;;13.35;6.53;;;;;;;30.17;55.55;100978.19;7395068;19;20539;-43
2022/06/23 10:32:38;;;;;;;11.40;6.55;;;;;;;30.56;54.18;100968.78;7395402;19;20025;-42
2022/06/23 10:35:22;;;;;;;10.60;6.60;;;;;;;30.35;54.31;100965.06;7394743;19;20017;-42
2022/06/23 10:38:25;;;;;;;11.70;6.40;;;;;;;30.64;55.16;100963.22;7395683;19;20289;-42
2022/06/23 10:41:12;;;;;;;11.10;6.22;;;;;;;30.64;53.63;100968.63;7394162;19;20014;-43
2022/06/23 10:43:58;;;;;;;11.45;6.00;;;;;;;30.97;53.25;100959.88;7393928;19;20461;-42
2022/06/23 10:46:33;;;;;;;15.48;5.80;;;;;;;31.02;53.10;100952.06;7394858;19;20010;-43
2022/06/23 10:49:32;;;;;;;9.40;5.80;;;;;;;31.07;51.31;100951.44;7394393;19;20711;-43
2022/06/23 10:52:30;;;;;;;8.60;4.78;;;;;;;31.41;50.71;100941.59;7391632;19;20007;-42
2022/06/23 10:55:28;;;;;;;13.60;5.00;;;;;;;31.64;49.18;100945.88;7391152;19;20014;-42
2022/06/23 10:58:17;;;;;;;24.27;5.82;;;;;;;31.66;48.88;100941.06;7393827;19;20049;-42
2022/06/23 11:01:01;;;;;;;9.50;5.03;;;;;;;31.88;47.82;100947.13;7394633;19;20025;-43
2022/06/23 11:03:56;;;;;;;9.30;5.05;;;;;;;31.57;48.90;100933.13;7393510;19;20014;-43
2022/06/23 11:06:46;;;;;;;10.48;4.82;;;;;;;31.85;47.07;100917.75;7394158;19;20022;-44
2022/06/23 11:09:40;;;;;;;44.78;6.15;;;;;;;32.03;46.82;100923.41;7393220;19;20018;-41
2022/06/23 11:12:22;;;;;;;12.30;5.40;;;;;;;32.30;46.55;100928.84;7393739;19;20014;-42
2022/06/23 11:15:04;;;;;;;8.50;4.28;;;;;;;32.57;45.48;100924.22;7393849;19;20029;-46
2022/06/23 11:17:57;;;;;;;33.40;5.60;;;;;;;32.56;44.81;100921.72;7394403;19;20018;-42
2022/06/23 11:20:38;;;;;;;13.00;4.65;;;;;;;32.79;43.20;100920.47;7393508;19;20018;-43
2022/06/23 11:23:19;;;;;;;22.75;5.00;;;;;;;32.79;43.57;100923.19;7393038;19;20007;-42
2022/06/23 11:25:58;;;;;;;11.60;4.25;;;;;;;33.16;42.43;100926.19;7392923;19;20007;-42
2022/06/23 11:28:37;;;;;;;17.48;4.55;;;;;;;33.51;42.53;100915.78;7391761;19;20025;-44
2022/06/23 11:31:19;;;;;;;8.85;4.53;;;;;;;33.91;39.66;100918.25;7393279;19;20023;-46
2022/06/23 11:34:20;;;;;;;13.80;4.35;;;;;;;34.18;40.98;100918.03;7392196;19;20089;-43
2022/06/23 11:37:01;;;;;;;10.95;4.60;;;;;;;34.73;39.06;100921.94;7392206;19;20026;-42
2022/06/23 11:40:04;;;;;;;19.10;5.05;;;;;;;35.23;36.89;100913.59;7393143;19;20352;-45
2022/06/23 11:42:57;;;;;;;6.65;4.00;;;;;;;35.04;37.44;100903.81;7392453;19;20023;-42
2022/06/23 11:45:37;;;;;;;10.20;4.15;;;;;;;35.33;36.83;100904.91;7393963;19;20024;-43
2022/06/23 11:48:23;;;;;;;12.65;4.22;;;;;;;35.37;36.69;100908.84;7393516;19;20018;-42
2022/06/23 11:51:06;;;;;;;11.75;4.65;;;;;;;35.68;36.19;100902.28;7392542;19;20023;-42
2022/06/23 11:53:51;;;;;;;14.95;4.40;;;;;;;36.10;35.40;100898.72;7392084;19;20021;-42
2022/06/23 11:56:35;;;;;;;11.40;4.53;;;;;;;35.96;36.06;100898.09;7391962;19;20018;-42
2022/06/23 11:59:24;;;;;;;10.88;4.13;;;;;;;36.08;34.65;100889.94;7392849;19;20018;-42
2022/06/23 12:01:56;;;;;;;10.13;4.65;;;;;;;36.19;34.71;100899.19;7393902;19;20018;-41
2022/06/23 12:04:48;;;;;;;11.90;5.03;;;;;;;36.36;34.48;100893.88;7392878;19;20362;-44
2022/06/23 12:07:37;;;;;;;9.27;4.28;;;;;;;36.15;35.23;100878.88;7391278;19;20014;-42
2022/06/23 12:10:17;;;;;;;11.60;4.63;;;;;;;35.96;35.47;100892.63;7392463;19;20132;-41
2022/06/23 12:12:50;;;;;;;9.52;4.60;;;;;;;36.17;34.10;100891.22;7391454;19;20018;-42
2022/06/23 12:15:23;;;;;;;15.27;4.53;;;;;;;36.70;34.15;100889.44;7390123;19;20506;-42
2022/06/23 12:17:55;;;;;;;30.30;5.88;;;;;;;36.83;33.77;100885.63;7391517;19;20014;-41
2022/06/23 12:20:27;;;;;;;;;;;;;;;35.89;34.22;100885.66;7393019;19;20018;-41